• Join FlightAware (Why Join?)
  • Login
  • US Flag 
03:28AM EST


 

Airport Tracker/Info


-or-


 

Live Flight TrackerFlight Track Log ✈ ASQ6041 ✈ 07-Sep-2013 ✈ KLNK - KDEN

Flight Track Log - Related Links

Times and Time Zones

All times are in EDT time to prevent confusion due to time zone crossing. See the ASQ6041 flight status page for this flight to view local times or setup timezone preferences in your user account.

Time Position Orientation Groundspeed Altitude Reporting Facility
EDT Latitude Longitude Course Direction KTS MPH feet Rate Location/Type
02:31PM 40.9011 -96.8581 301° West 236 272 4,600  Level Minneapolis Center
02:31PM 40.9142 -96.8619 347° North 206 237 4,600 1,620 Level Minneapolis Center
02:32PM 40.8129 -97.1756 253° West  Level Estimated
02:32PM 40.8986 -96.9608 258° West 270 311 6,400  Level Minneapolis Center
02:33PM 40.7999 -97.3143 257° West  Level Estimated
02:33PM 40.8783 -97.0600 255° West 280 322 9,400  Level Minneapolis Center
02:34PM 40.7786 -97.4512 258° West  Level FlightAware Approximate
02:34PM 40.8594 -97.1578 256° West 276 318 11,000  Level Minneapolis Center
02:35PM 40.7654 -97.5898 246° West  Level Estimated
02:35PM 40.8339 -97.3008 257° West 325 374 12,400  Level Minneapolis Center
02:36PM 40.8086 -97.4186 254° West 341 392 14,200 1,500 Climbing Minneapolis Center
02:37PM 40.7847 -97.5453 256° West 351 404 15,600 1,500 Climbing Minneapolis Center
02:38PM 40.7578 -97.6747 255° West 361 415 17,400 1,560 Climbing Minneapolis Center
02:39PM 40.7317 -97.8022 255° West 361 415 18,900 1,500 Climbing Minneapolis Center
02:40PM 40.7000 -97.9606 255° West 368 423 20,800 1,740 Climbing Minneapolis Center
02:41PM 40.6672 -98.1197 255° West 373 429 22,900 1,740 Climbing Minneapolis Center
02:42PM 40.6414 -98.2497 255° West 369 425 24,400 1,440 Climbing Minneapolis Center
02:43PM 40.6139 -98.3800 254° West 367 422 25,900 1,380 Climbing Minneapolis Center
02:44PM 40.6122 -98.5139 269° West 373 429 27,300 1,380 Climbing Minneapolis Center
02:45PM 40.6236 -98.6511 276° West 373 429 28,800 1,260 Climbing Minneapolis Center
02:46PM 40.6358 -98.7878 277° West 374 430 30,000 540 Climbing Minneapolis Center
02:48PM 40.6483 -98.9333 277° West 382 440 30,000  Level Minneapolis Center
02:49PM 40.6631 -99.0939 277° West 419 482 30,000  Level Minneapolis Center
02:49PM 40.6719 -99.1950 277° West 445 512 30,000  Level Denver Center
02:50PM 40.6856 -99.3636 276° West 459 528 30,000  Level Denver Center
02:51PM 40.6992 -99.5286 276° West 453 521 30,000  Level Denver Center
02:52PM 40.7128 -99.6933 276° West 451 519 30,000  Level Denver Center
02:53PM 40.7275 -99.8792 276° West 455 524 30,000  Level Denver Center
02:54PM 40.7422 -100.0658 276° West 458 527 30,000  Level Denver Center
02:55PM 40.7542 -100.2256 276° West 457 526 30,000  Level Denver Center
02:56PM 40.7664 -100.3850 276° West 457 526 30,000  Level Denver Center
02:57PM 40.7778 -100.5450 275° West 457 526 30,000  Level Denver Center
02:58PM 40.7764 -100.7322 269° West 469 540 30,000  Level Denver Center
02:59PM 40.7453 -100.9000 256° West 461 531 30,000  Level Denver Center
03:01PM 40.7153 -101.0822 258° West 455 524 30,000  Level Denver Center
03:02PM 40.6789 -101.2903 257° West 456 525 30,000  Level Denver Center
03:03PM 40.6514 -101.4469 257° West 458 527 30,000  Level Denver Center
03:04PM 40.6236 -101.6031 257° West 458 527 30,000  Level Denver Center
03:05PM 40.5906 -101.7844 257° West 456 525 30,000  Level Denver Center
03:06PM 40.5581 -101.9669 257° West 458 527 30,000  Level Denver Center
03:07PM 40.5244 -102.1481 256° West 458 527 30,000  Level Denver Center
03:08PM 40.4953 -102.3039 256° West 459 528 30,000  Level Denver Center
03:09PM 40.4608 -102.4853 256° West 459 528 30,000  Level Denver Center
03:10PM 40.4328 -102.6408 257° West 459 528 30,000  Level Denver Center
03:11PM 40.4000 -102.8181 256° West 456 525 30,000  Level Denver Center
03:12PM 40.3697 -102.9794 256° West 457 526 30,000  Level Denver Center
03:13PM 40.3383 -103.1392 256° West 456 525 30,000 -120 Level Denver Center
03:14PM 40.3097 -103.2936 256° West 442 509 29,800 -1,860 Descending Denver Center
03:15PM 40.2794 -103.4422 255° West 426 490 26,200 -3,000 Descending Denver Center
03:16PM 40.2508 -103.5944 256° West 430 495 23,700 -2,460 Descending Denver Center
03:17PM 40.2203 -103.7464 255° West 382 440 21,200 -2,760 Descending Denver Center
03:18PM 40.2050 -103.8847 262° West 359 413 18,000 -2,400 Descending Denver Center
03:19PM 40.2153 -104.0058 276° West 337 388 16,400 -1,800 Descending Denver Center
03:20PM 40.2267 -104.1233 277° West 329 379 14,400 -1,860 Descending Denver Center
03:21PM 40.2375 -104.2458 277° West 318 366 12,600 -1,140 Descending Denver Center
03:22PM 40.2258 -104.3536 262° West 301 346 12,100 -1,200 Descending Denver Center
03:23PM 40.1969 -104.4619 251° West 294 338 10,200 -1,260 Descending Denver Center
03:24PM 40.1744 -104.5514 252° West 262 302 9,600 -600 Descending Denver Center
03:25PM 40.1525 -104.6264 249° West 227 261 9,000 -300 Descending Denver Center
03:27PM 40.0961 -104.6708 211° Southwest 222 255 9,000 -360 Level Denver Center
03:28PM 40.0586 -104.6853 196° South 194 223 8,300 -960 Descending Denver Center
03:29PM 39.9933 -104.6858 180° South 188 216 7,100 -1,080 Descending Denver Center
03:30PM 39.9383 -104.6864 180° South 185 213 6,100 -840 Descending Denver Center
03:31PM 39.8961 -104.6869 181° South 158 182 5,400 -720 Descending Denver Center